To NAV CANADA Home Page Login to a new session Search on AWWS site Disclaimer Vers la page française équivalente Tips FAQ What's new on the site To the Forecasts and Observations / NOTAM section To "File a Flight Plan" website Publications and other links Update of the User's profile FIC Telephone Numbers My Weather Data Folder Route Weather Data Regional Weather Data Local Weather Data To the Forecasts and Observations / NOTAM section
Request Generated 04/24/2019 at 16:01:24 UTC . Weather information available at that time is displayed.

METAR/TAF

LA GRANDE RIVIERE/QC    

METAR CYGL 241600Z 11009KT 15SM BKN240 03/M07 A2995 RMK CI7 SLP157=
METAR CYGL 241500Z 05006KT 15SM BKN240 01/M08 A2997 RMK CI5 SLP163=
METAR CYGL 241400Z 06007KT 15SM BKN240 M01/M09 A2998 RMK CI6 SLP167=

TAF CYGL 241138Z 2412/2512 08008KT P6SM BKN240
BECMG 2415/2417 13012KT
FM250900 16012KT P6SM -SHRA OVC030 TEMPO 2509/2512 5SM -SHRASN BR
OVC020
BECMG 2510/2512 15015G25KT
RMK NXT FCST BY 241800Z=
Your time UTC time
Weather data provided by Environment Canada and NAV CANADA